Time;durP1;ratioP1;P1;durP2;ratioP2;P2;SDS_P1;SDS_P2;PMS_P1;PMS_P2;Temp;Humidity;BMP_temperature;BMP_pressure;BME280_temperature;BME280_humidity;BME280_pressure;Samples;Min_cycle;Max_cycle;Signal;HPM_P1;HPM_P2
2022/11/11 00:00:11;;;;;;;23.58;10.95;;;;;;;8.06;100.00;102684.84;5045626;28;20021;-67
2022/11/11 00:02:36;;;;;;;24.83;11.20;;;;;;;8.11;100.00;102699.13;5045418;28;20029;-67
2022/11/11 00:05:01;;;;;;;24.02;11.32;;;;;;;8.10;100.00;102691.16;5046553;28;20171;-66
2022/11/11 00:07:27;;;;;;;25.17;12.13;;;;;;;8.11;100.00;102692.94;5044145;28;20040;-65
2022/11/11 00:09:52;;;;;;;26.33;12.50;;;;;;;8.17;100.00;102688.84;5047544;28;20104;-66
2022/11/11 00:12:17;;;;;;;25.42;12.80;;;;;;;8.22;100.00;102696.94;5044177;28;20025;-65
2022/11/11 00:14:42;;;;;;;25.40;12.75;;;;;;;8.19;100.00;102694.19;5046497;28;20026;-66
2022/11/11 00:25:40;;;;;;;25.95;13.45;;;;;;;8.33;100.00;102700.94;5043092;28;20043;-65
2022/11/11 00:28:06;;;;;;;25.90;13.13;;;;;;;8.28;100.00;102702.47;5042716;28;20037;-66
2022/11/11 00:30:31;;;;;;;25.58;13.90;;;;;;;8.32;100.00;102701.78;5044023;28;20032;-65
2022/11/11 00:32:57;;;;;;;27.67;14.57;;;;;;;8.32;100.00;102709.69;5041630;28;20038;-66
2022/11/11 00:38:44;;;;;;;28.55;15.40;;;;;;;8.30;100.00;102711.38;5042795;28;20123;-66
2022/11/11 00:40:56;;;;;;;26.15;14.68;;;;;;;8.41;100.00;102705.66;5041175;28;20060;-65
2022/11/11 00:43:21;;;;;;;27.40;15.60;;;;;;;8.36;100.00;102705.47;5044492;28;20025;-66
2022/11/11 00:45:46;;;;;;;27.25;15.48;;;;;;;8.42;100.00;102717.97;5041975;28;20171;-66
2022/11/11 00:50:58;;;;;;;27.33;15.25;;;;;;;8.41;100.00;102718.81;5041045;28;20419;-66
2022/11/11 00:53:31;;;;;;;27.33;15.63;;;;;;;8.38;100.00;102715.22;5040918;28;20191;-66
2022/11/11 00:55:57;;;;;;;26.80;14.95;;;;;;;8.44;100.00;102714.59;5045225;28;20031;-66
2022/11/11 00:58:22;;;;;;;26.15;14.98;;;;;;;8.44;100.00;102718.97;5044527;28;20021;-66
2022/11/11 01:00:54;;;;;;;26.10;14.95;;;;;;;8.43;100.00;102722.41;5045904;28;20044;-66
2022/11/11 01:03:20;;;;;;;27.90;15.75;;;;;;;8.47;100.00;102724.41;5043620;28;20021;-66
2022/11/11 01:05:47;;;;;;;27.58;15.93;;;;;;;8.48;100.00;102731.47;5045567;28;20115;-66
2022/11/11 01:08:12;;;;;;;26.35;15.43;;;;;;;8.51;100.00;102737.75;5044144;28;20028;-66
2022/11/11 01:10:37;;;;;;;27.95;15.82;;;;;;;8.50;100.00;102740.34;5044633;28;20021;-66
2022/11/11 01:13:13;;;;;;;28.30;15.98;;;;;;;8.47;100.00;102741.09;5045274;28;20415;-66
2022/11/11 01:15:45;;;;;;;26.70;15.10;;;;;;;8.50;100.00;102750.88;5044272;28;20488;-66
2022/11/11 01:18:12;;;;;;;27.48;15.32;;;;;;;8.48;100.00;102753.44;5043938;28;20049;-66
2022/11/11 01:20:38;;;;;;;29.90;16.20;;;;;;;8.50;100.00;102740.34;5044239;28;20017;-66
2022/11/11 01:23:04;;;;;;;27.08;15.02;;;;;;;8.51;100.00;102736.88;5045063;28;20032;-66
2022/11/11 01:25:33;;;;;;;27.42;15.52;;;;;;;8.53;100.00;102736.13;5041512;28;20087;-66
2022/11/11 01:27:58;;;;;;;29.48;16.50;;;;;;;8.53;100.00;102735.19;5045977;28;20112;-67
2022/11/11 01:30:23;;;;;;;28.35;16.17;;;;;;;8.50;100.00;102741.25;5042350;28;20061;-66
2022/11/11 01:32:49;;;;;;;28.02;15.70;;;;;;;8.50;100.00;102733.34;5045145;28;20075;-66
2022/11/11 01:35:14;;;;;;;27.55;15.35;;;;;;;8.52;100.00;102746.59;5043538;28;20052;-67
2022/11/11 01:37:39;;;;;;;28.30;15.75;;;;;;;8.52;100.00;102743.97;5044120;28;20125;-67
2022/11/11 01:40:05;;;;;;;26.40;15.23;;;;;;;8.53;100.00;102735.19;5044649;28;20013;-67
2022/11/11 01:42:44;;;;;;;28.85;16.10;;;;;;;8.54;100.00;102727.34;5042720;28;20034;-67
2022/11/11 01:45:47;;;;;;;28.52;16.15;;;;;;;8.60;100.00;102726.72;5043763;28;20029;-67
2022/11/11 01:51:05;;;;;;;28.95;16.15;;;;;;;8.53;100.00;102715.03;5039895;28;20040;-66
2022/11/11 01:53:31;;;;;;;27.70;15.52;;;;;;;8.53;100.00;102708.84;5045053;28;20491;-67
2022/11/11 01:56:00;;;;;;;27.55;15.55;;;;;;;8.52;100.00;102710.56;5042010;28;20029;-67
2022/11/11 01:58:25;;;;;;;27.20;15.10;;;;;;;8.54;100.00;102711.53;5038185;28;20018;-67
2022/11/11 02:00:51;;;;;;;28.20;16.20;;;;;;;8.51;100.00;102723.69;5044662;28;20112;-67
2022/11/11 02:03:20;;;;;;;28.00;15.07;;;;;;;8.52;100.00;102725.50;5042560;28;20032;-67
2022/11/11 02:05:45;;;;;;;27.20;16.00;;;;;;;8.53;100.00;102716.75;5043997;28;20029;-67
2022/11/11 02:08:31;;;;;;;28.17;15.95;;;;;;;8.61;100.00;102712.69;5043522;28;20036;-67
2022/11/11 02:11:09;;;;;;;28.35;16.35;;;;;;;8.60;100.00;102713.53;5038114;28;20112;-67
2022/11/11 02:16:24;;;;;;;28.15;16.30;;;;;;;8.60;100.00;102702.09;5038272;28;20095;-67
2022/11/11 02:18:50;;;;;;;29.90;16.15;;;;;;;8.58;100.00;102704.66;5044272;28;20053;-67
2022/11/11 02:21:44;;;;;;;28.30;16.10;;;;;;;8.57;100.00;102691.41;5042489;28;20028;-66
2022/11/11 02:24:15;;;;;;;28.27;15.27;;;;;;;8.55;100.00;102701.91;5038872;28;20480;-66
2022/11/11 02:26:43;;;;;;;29.75;15.98;;;;;;;8.51;100.00;102689.44;5041096;28;20120;-65
2022/11/11 02:29:14;;;;;;;29.20;16.83;;;;;;;8.49;100.00;102688.44;5040483;28;20043;-66
2022/11/11 02:31:40;;;;;;;28.35;15.63;;;;;;;8.60;100.00;102679.25;5040865;28;20037;-65
2022/11/11 02:34:05;;;;;;;30.02;16.42;;;;;;;8.47;100.00;102666.41;5040104;28;20149;-65
2022/11/11 02:36:31;;;;;;;30.48;16.30;;;;;;;8.52;100.00;102681.59;5042097;28;20087;-66
2022/11/11 02:38:56;;;;;;;30.08;15.93;;;;;;;8.44;100.00;102688.25;5039126;28;20021;-65
2022/11/11 02:44:06;;;;;;;27.67;15.50;;;;;;;8.48;100.00;102697.22;5038195;28;20087;-66
2022/11/11 02:46:31;;;;;;;26.67;14.90;;;;;;;8.42;100.00;102694.25;5041841;28;20025;-66
2022/11/11 02:48:56;;;;;;;28.27;16.40;;;;;;;8.38;100.00;102682.69;5038851;28;20496;-66
2022/11/11 02:51:21;;;;;;;27.67;15.05;;;;;;;8.36;100.00;102697.56;5042311;28;20025;-67
2022/11/11 02:53:47;;;;;;;28.73;14.88;;;;;;;8.36;100.00;102682.63;5039473;28;20069;-65
2022/11/11 02:57:05;;;;;;;27.88;14.80;;;;;;;8.34;100.00;102684.31;5040722;28;20068;-66
2022/11/11 02:58:57;;;;;;;28.77;15.32;;;;;;;8.29;100.00;102672.66;5035073;28;20091;-66
2022/11/11 03:01:23;;;;;;;28.33;15.20;;;;;;;8.29;100.00;102671.78;5042579;28;20033;-66
2022/11/11 03:03:48;;;;;;;27.75;14.82;;;;;;;8.24;100.00;102665.38;5041373;28;20095;-66
2022/11/11 03:06:13;;;;;;;27.70;14.40;;;;;;;8.21;100.00;102679.31;5042912;28;20037;-66
2022/11/11 03:08:39;;;;;;;28.58;14.05;;;;;;;8.27;100.00;102669.06;5042999;28;20025;-65
2022/11/11 03:11:04;;;;;;;27.05;14.70;;;;;;;8.22;100.00;102681.13;5041439;28;20419;-66
2022/11/11 03:13:29;;;;;;;27.60;14.57;;;;;;;8.14;100.00;102677.25;5043157;28;20120;-66
2022/11/11 03:15:55;;;;;;;27.08;13.85;;;;;;;8.21;100.00;102679.31;5040889;28;20409;-65
2022/11/11 03:18:20;;;;;;;26.23;13.82;;;;;;;8.24;100.00;102668.91;5043533;28;20128;-66
2022/11/11 03:21:03;;;;;;;26.40;13.80;;;;;;;8.16;100.00;102684.41;5041887;28;20457;-65
2022/11/11 03:23:29;;;;;;;27.73;14.48;;;;;;;8.18;100.00;102684.47;5037511;28;20033;-65
2022/11/11 03:25:54;;;;;;;28.33;14.20;;;;;;;8.16;100.00;102688.78;5044032;28;20114;-66
2022/11/11 03:28:20;;;;;;;27.90;14.18;;;;;;;8.12;100.00;102687.72;5040993;28;20093;-65
2022/11/11 03:30:48;;;;;;;26.05;13.93;;;;;;;8.20;100.00;102694.25;5043069;28;20047;-66
2022/11/11 03:33:14;;;;;;;26.75;13.30;;;;;;;8.16;100.00;102686.16;5041816;28;20464;-65
2022/11/11 03:35:40;;;;;;;26.15;13.38;;;;;;;8.16;100.00;102694.94;5041986;28;20132;-66
2022/11/11 03:41:01;;;;;;;25.77;13.30;;;;;;;8.19;100.00;102692.44;5014648;28;20411;-66
2022/11/11 03:43:32;;;;;;;27.65;13.85;;;;;;;8.20;100.00;102686.34;5022135;28;20026;-66
2022/11/11 03:45:59;;;;;;;25.42;13.30;;;;;;;8.14;100.00;102691.34;5018544;28;20046;-65
2022/11/11 03:48:26;;;;;;;26.80;13.45;;;;;;;8.15;100.00;102676.44;5022025;28;20025;-65
2022/11/11 03:50:52;;;;;;;27.48;13.70;;;;;;;8.14;100.00;102682.53;5018884;28;20088;-65
2022/11/11 03:53:19;;;;;;;26.52;13.65;;;;;;;8.08;100.00;102677.91;5020859;28;20029;-65
2022/11/11 03:55:44;;;;;;;26.77;13.25;;;;;;;8.14;100.00;102678.19;5019628;28;20090;-65
2022/11/11 03:58:10;;;;;;;25.98;13.40;;;;;;;8.11;100.00;102679.75;5020089;28;20040;-67
2022/11/11 04:00:35;;;;;;;26.70;13.57;;;;;;;8.08;100.00;102682.25;5020994;28;20112;-67
2022/11/11 04:11:29;;;;;;;27.17;13.73;;;;;;;8.04;100.00;102686.50;5019160;28;20531;-66
2022/11/11 04:16:44;;;;;;;27.40;14.25;;;;;;;7.98;100.00;102705.56;5024877;28;20049;-67
2022/11/11 04:21:53;;;;;;;26.55;13.57;;;;;;;7.97;100.00;102709.03;5043750;28;20098;-67
2022/11/11 04:27:18;;;;;;;26.63;13.40;;;;;;;7.90;100.00;102699.06;5041613;28;20186;-66
2022/11/11 04:29:45;;;;;;;27.70;14.25;;;;;;;7.86;100.00;102697.09;5045295;28;20021;-67
2022/11/11 04:35:12;;;;;;;27.13;13.95;;;;;;;7.85;100.00;102705.88;5041524;28;20099;-67
2022/11/11 04:37:46;;;;;;;28.02;13.98;;;;;;;7.85;100.00;102709.38;5045952;28;20529;-67
2022/11/11 04:42:55;;;;;;;27.70;14.85;;;;;;;7.85;100.00;102708.50;5039698;28;20082;-67
2022/11/11 04:45:26;;;;;;;28.70;14.38;;;;;;;7.81;100.00;102703.91;5046488;28;20029;-65
2022/11/11 04:48:05;;;;;;;27.45;14.68;;;;;;;7.82;100.00;102697.78;5043769;28;20065;-66
2022/11/11 04:50:35;;;;;;;27.40;14.23;;;;;;;7.78;100.00;102699.41;5040204;28;20049;-65
2022/11/11 04:53:02;;;;;;;27.55;14.55;;;;;;;7.77;100.00;102696.69;5046419;28;20055;-65
2022/11/11 04:58:13;;;;;;;27.67;14.23;;;;;;;7.68;100.00;102703.34;5043511;28;20091;-65
2022/11/11 05:00:39;;;;;;;27.67;14.27;;;;;;;7.67;100.00;102709.47;5045152;28;20025;-65
2022/11/11 05:03:23;;;;;;;27.30;14.63;;;;;;;7.66;100.00;102699.75;5043824;28;20429;-66
2022/11/11 05:08:54;;;;;;;28.75;14.60;;;;;;;7.64;100.00;102701.41;5041709;28;20032;-66
2022/11/11 05:11:31;;;;;;;26.25;13.85;;;;;;;7.65;100.00;102697.06;5043298;28;20142;-65
2022/11/11 05:22:23;;;;;;;25.67;14.18;;;;;;;7.53;100.00;102702.66;5043222;28;20120;-66
2022/11/11 05:27:32;;;;;;;27.77;15.20;;;;;;;7.46;100.00;102709.34;5040105;28;20132;-66
2022/11/11 05:29:58;;;;;;;26.95;14.57;;;;;;;7.51;100.00;102704.28;5045949;28;20072;-65
2022/11/11 05:32:24;;;;;;;27.75;14.02;;;;;;;7.44;100.00;102707.47;5042811;28;20370;-65
2022/11/11 05:34:49;;;;;;;26.75;13.52;;;;;;;7.47;100.00;102704.97;5044401;28;20096;-66
2022/11/11 05:37:15;;;;;;;27.48;13.63;;;;;;;7.45;100.00;102704.91;5043442;28;20025;-66
2022/11/11 05:39:41;;;;;;;26.02;13.35;;;;;;;7.38;100.00;102705.44;5043529;28;20026;-66
2022/11/11 05:42:07;;;;;;;26.88;13.63;;;;;;;7.38;100.00;102720.34;5045044;28;20025;-66
2022/11/11 05:44:32;;;;;;;26.77;14.02;;;;;;;7.35;100.00;102717.56;5042593;28;20021;-66
2022/11/11 05:46:57;;;;;;;27.65;13.93;;;;;;;7.37;100.00;102710.63;5045429;28;20029;-66
2022/11/11 05:49:24;;;;;;;26.25;13.98;;;;;;;7.32;100.00;102708.72;5042628;28;20034;-65
2022/11/11 05:51:50;;;;;;;26.38;13.98;;;;;;;7.29;100.00;102713.81;5044690;28;20059;-66
2022/11/11 05:54:15;;;;;;;26.00;13.98;;;;;;;7.25;100.00;102704.00;5043478;28;20033;-66
2022/11/11 05:56:40;;;;;;;26.55;14.65;;;;;;;7.26;100.00;102695.25;5043534;28;20017;-66
2022/11/11 05:59:06;;;;;;;27.27;14.63;;;;;;;7.18;100.00;102704.53;5044578;28;20094;-67
2022/11/11 06:01:33;;;;;;;27.80;14.80;;;;;;;7.15;100.00;102699.13;5041966;28;20018;-66
2022/11/11 06:03:58;;;;;;;27.45;15.00;;;;;;;7.08;100.00;102712.81;5045329;28;20532;-66
2022/11/11 06:06:24;;;;;;;28.55;15.75;;;;;;;7.12;100.00;102714.72;5042000;28;20040;-66
2022/11/11 06:08:49;;;;;;;26.90;14.95;;;;;;;7.03;100.00;102720.44;5044312;28;20457;-66
2022/11/11 06:11:14;;;;;;;27.15;14.73;;;;;;;7.03;100.00;102711.66;5043250;28;20108;-66
2022/11/11 06:13:40;;;;;;;27.73;15.32;;;;;;;6.97;100.00;102722.78;5042695;28;20033;-67
2022/11/11 06:16:05;;;;;;;27.02;14.18;;;;;;;7.00;100.00;102716.78;5044255;28;20108;-66
2022/11/11 06:18:31;;;;;;;27.52;14.43;;;;;;;6.97;100.00;102714.88;5040263;28;20053;-65
2022/11/11 06:20:57;;;;;;;26.05;13.93;;;;;;;6.90;100.00;102721.59;5045146;28;20017;-66
2022/11/11 06:23:24;;;;;;;28.15;15.13;;;;;;;6.92;100.00;102726.94;5041674;28;20057;-66
2022/11/11 06:28:34;;;;;;;27.67;14.18;;;;;;;6.88;100.00;102730.22;5039466;28;20072;-66
2022/11/11 06:31:00;;;;;;;26.75;13.90;;;;;;;6.93;100.00;102733.97;5044612;28;20029;-66
2022/11/11 06:33:26;;;;;;;28.52;15.07;;;;;;;6.86;100.00;102739.75;5037055;28;20025;-65
2022/11/11 06:35:51;;;;;;;27.75;15.25;;;;;;;6.89;100.00;102742.56;5044310;28;20098;-65
2022/11/11 06:38:17;;;;;;;28.85;15.40;;;;;;;6.85;100.00;102738.84;5041888;28;20119;-70
2022/11/11 06:40:43;;;;;;;27.75;15.15;;;;;;;6.73;100.00;102741.78;5045477;28;20056;-67
2022/11/11 06:43:09;;;;;;;28.30;15.25;;;;;;;6.65;100.00;102747.47;5044041;28;20499;-73
2022/11/11 06:45:35;;;;;;;26.60;14.90;;;;;;;6.63;100.00;102750.91;5042621;28;20072;-73
2022/11/11 06:48:01;;;;;;;28.35;16.38;;;;;;;6.51;100.00;102754.63;5042791;28;20021;-66
2022/11/11 06:50:28;;;;;;;27.80;15.13;;;;;;;6.44;100.00;102742.94;5046739;28;20447;-70
2022/11/11 06:52:54;;;;;;;28.40;15.80;;;;;;;6.39;100.00;102750.56;5045244;28;20082;-69
2022/11/11 06:55:19;;;;;;;28.77;15.48;;;;;;;6.34;100.00;102749.41;5046346;28;20314;-69
2022/11/11 06:57:44;;;;;;;28.33;15.18;;;;;;;6.38;100.00;102755.75;5045552;28;20028;-72
2022/11/11 07:00:11;;;;;;;28.73;15.50;;;;;;;6.32;100.00;102753.72;5042929;28;20549;-72
2022/11/11 07:02:36;;;;;;;30.02;15.63;;;;;;;6.32;100.00;102743.19;5045746;28;20112;-71
2022/11/11 07:05:02;;;;;;;29.85;15.70;;;;;;;6.27;100.00;102744.66;5044997;28;20112;-71
2022/11/11 07:07:27;;;;;;;29.77;16.05;;;;;;;6.31;100.00;102753.63;5044869;28;20030;-70
2022/11/11 07:09:54;;;;;;;27.83;15.00;;;;;;;6.31;100.00;102751.00;5044657;28;20086;-72
2022/11/11 07:12:20;;;;;;;28.50;15.43;;;;;;;6.28;100.00;102757.88;5044860;28;20021;-69
2022/11/11 07:14:47;;;;;;;28.98;15.35;;;;;;;6.29;100.00;102753.50;5048314;28;20492;-72
2022/11/11 07:17:12;;;;;;;28.83;14.07;;;;;;;6.28;100.00;102757.88;5045279;28;20047;-73
2022/11/11 07:19:38;;;;;;;26.92;14.18;;;;;;;6.26;100.00;102754.28;5040423;28;20064;-71
2022/11/11 07:22:04;;;;;;;28.02;13.82;;;;;;;6.26;100.00;102762.16;5044220;28;20033;-72
2022/11/11 07:24:29;;;;;;;27.55;14.93;;;;;;;6.22;100.00;102770.69;5044055;28;20025;-70
2022/11/11 07:26:55;;;;;;;26.90;14.48;;;;;;;6.33;100.00;102773.88;5043369;28;20021;-67
2022/11/11 07:29:20;;;;;;;27.83;13.88;;;;;;;6.38;100.00;102784.66;5045137;28;20029;-72
2022/11/11 07:31:45;;;;;;;27.02;14.27;;;;;;;6.33;100.00;102759.84;5043435;28;20113;-68
2022/11/11 07:34:11;;;;;;;27.17;14.35;;;;;;;6.34;100.00;102772.16;5042635;28;20487;-69
2022/11/11 07:36:36;;;;;;;26.83;13.80;;;;;;;6.34;100.00;102778.31;5044538;28;20042;-67
2022/11/11 07:39:02;;;;;;;27.50;15.32;;;;;;;6.37;100.00;102791.59;5044020;28;20025;-69
2022/11/11 07:41:27;;;;;;;27.95;14.30;;;;;;;6.43;100.00;102785.78;5045817;28;20017;-68
2022/11/11 07:43:52;;;;;;;28.65;13.77;;;;;;;6.49;100.00;102778.19;5043178;28;20071;-67
2022/11/11 07:46:18;;;;;;;27.70;14.02;;;;;;;6.54;100.00;102776.72;5044383;28;20053;-68
2022/11/11 07:48:43;;;;;;;27.85;14.10;;;;;;;6.55;100.00;102782.88;5045090;28;20029;-68
2022/11/11 07:51:08;;;;;;;26.42;13.68;;;;;;;6.57;100.00;102787.41;5044484;28;20033;-68
2022/11/11 07:53:34;;;;;;;25.38;13.23;;;;;;;6.60;100.00;102791.91;5040749;28;20032;-71
2022/11/11 07:55:59;;;;;;;28.02;13.77;;;;;;;6.60;100.00;102803.31;5044717;28;20099;-71
2022/11/11 07:58:24;;;;;;;26.83;13.43;;;;;;;6.66;100.00;102802.75;5043557;28;20025;-71
2022/11/11 08:00:50;;;;;;;28.90;14.40;;;;;;;6.66;100.00;102801.84;5048064;28;20035;-73
2022/11/11 08:03:16;;;;;;;26.80;14.05;;;;;;;6.74;100.00;102803.13;5047719;28;20403;-72
2022/11/11 08:05:42;;;;;;;27.15;13.90;;;;;;;6.75;100.00;102815.47;5049589;28;20445;-70
2022/11/11 08:08:08;;;;;;;25.27;13.57;;;;;;;6.83;100.00;102811.50;5048539;28;20105;-72
2022/11/11 08:10:34;;;;;;;27.20;13.60;;;;;;;6.86;100.00;102827.44;5049242;28;20060;-76
2022/11/11 08:15:44;;;;;;;25.48;13.27;;;;;;;6.96;100.00;102824.44;5046942;28;20656;-69
2022/11/11 08:18:09;;;;;;;26.92;13.55;;;;;;;7.02;100.00;102822.94;5047516;28;20117;-70
2022/11/11 08:20:35;;;;;;;26.77;13.60;;;;;;;7.00;100.00;102829.84;5045193;28;20435;-73
2022/11/11 08:23:03;;;;;;;26.65;13.75;;;;;;;7.07;100.00;102818.81;5048891;28;20033;-72
2022/11/11 08:25:29;;;;;;;26.05;13.55;;;;;;;7.10;100.00;102837.38;5046228;28;20032;-71
2022/11/11 08:28:02;;;;;;;26.50;13.57;;;;;;;7.12;100.00;102836.63;5045824;28;20025;-70
2022/11/11 08:30:28;;;;;;;25.50;12.68;;;;;;;7.19;100.00;102848.34;5044170;28;20431;-71
2022/11/11 08:33:01;;;;;;;25.65;13.25;;;;;;;7.28;100.00;102853.16;5047434;28;20040;-74
2022/11/11 08:35:26;;;;;;;;;;;;;;;7.38;100.00;102849.28;5047429;28;20020;-72
2022/11/11 08:37:52;;;;;;;23.92;12.10;;;;;;;7.38;100.00;102851.91;5048952;28;20283;-70
2022/11/11 08:40:18;;;;;;;24.13;11.65;;;;;;;7.46;100.00;102853.19;5046335;28;20135;-69
2022/11/11 08:42:44;;;;;;;24.35;12.45;;;;;;;7.48;100.00;102855.09;5046855;28;20481;-69
2022/11/11 08:45:09;;;;;;;24.00;11.35;;;;;;;7.53;100.00;102847.41;5050589;28;20040;-68
2022/11/11 08:47:35;;;;;;;23.90;11.85;;;;;;;7.57;100.00;102856.34;5047934;28;20112;-69
2022/11/11 08:50:01;;;;;;;24.52;11.75;;;;;;;7.61;100.00;102856.56;5047152;28;20036;-69
2022/11/11 08:52:27;;;;;;;23.88;11.55;;;;;;;7.61;100.00;102859.19;5047481;28;20024;-69
2022/11/11 08:54:52;;;;;;;24.55;10.90;;;;;;;7.65;100.00;102866.41;5045533;28;20473;-69
2022/11/11 08:57:17;;;;;;;23.05;10.50;;;;;;;7.68;100.00;102861.28;5043152;28;20060;-69
2022/11/11 08:59:42;;;;;;;23.35;10.23;;;;;;;7.74;100.00;102863.31;5045409;28;20022;-69
2022/11/11 09:02:11;;;;;;;23.33;10.77;;;;;;;7.83;100.00;102868.13;5045466;28;20033;-69
2022/11/11 09:04:37;;;;;;;24.08;10.30;;;;;;;7.91;100.00;102861.50;5045195;28;20041;-69
2022/11/11 09:07:02;;;;;;;24.45;10.82;;;;;;;7.93;100.00;102859.84;5045898;28;20028;-69
2022/11/11 09:09:27;;;;;;;22.30;10.35;;;;;;;8.02;100.00;102856.72;5042596;28;20036;-69
2022/11/11 09:11:53;;;;;;;22.63;10.27;;;;;;;8.09;100.00;102868.47;5045685;28;20037;-69
2022/11/11 09:14:18;;;;;;;22.30;10.48;;;;;;;8.18;100.00;102868.88;5043088;28;20057;-68
2022/11/11 09:16:43;;;;;;;23.05;10.48;;;;;;;8.27;100.00;102869.34;5044982;28;20035;-68
2022/11/11 09:19:09;;;;;;;23.25;9.73;;;;;;;8.43;100.00;102870.00;5044284;28;20063;-65
2022/11/11 09:21:34;;;;;;;22.02;9.27;;;;;;;8.52;100.00;102870.50;5043603;28;20025;-66
2022/11/11 09:23:59;;;;;;;21.73;9.52;;;;;;;8.51;100.00;102880.09;5045914;28;20025;-65
2022/11/11 09:26:25;;;;;;;20.85;9.07;;;;;;;8.54;100.00;102872.34;5041849;28;20536;-66
2022/11/11 09:28:50;;;;;;;20.85;9.10;;;;;;;8.60;100.00;102876.09;5038424;28;20017;-66
2022/11/11 09:31:16;;;;;;;22.00;9.43;;;;;;;8.70;100.00;102878.31;5045182;28;20078;-66
2022/11/11 09:33:41;;;;;;;20.92;8.93;;;;;;;8.81;100.00;102868.22;5043559;28;20384;-66
2022/11/11 09:36:07;;;;;;;21.50;9.05;;;;;;;8.91;100.00;102873.06;5043950;28;20036;-67
2022/11/11 09:38:32;;;;;;;21.35;8.88;;;;;;;8.96;100.00;102879.44;5044544;28;20021;-66
2022/11/11 09:41:14;;;;;;;22.35;9.40;;;;;;;9.15;100.00;102885.53;5042704;28;20025;-66
2022/11/11 09:43:58;;;;;;;22.15;9.27;;;;;;;9.25;100.00;102880.69;5042259;28;20823;-67
2022/11/11 09:46:43;;;;;;;21.17;8.57;;;;;;;9.36;100.00;102881.16;5038337;28;20018;-66
2022/11/11 09:49:23;;;;;;;21.95;9.13;;;;;;;9.50;100.00;102878.19;5042595;28;20026;-66
2022/11/11 09:52:07;;;;;;;22.08;9.45;;;;;;;9.47;100.00;102889.50;5042067;28;20036;-66
2022/11/11 09:54:57;;;;;;;22.50;8.68;;;;;;;9.51;100.00;102887.88;5040545;28;20069;-66
2022/11/11 09:57:37;;;;;;;20.83;8.80;;;;;;;9.66;100.00;102879.72;5038452;28;20034;-67
2022/11/11 10:00:13;;;;;;;21.45;8.77;;;;;;;9.71;100.00;102880.78;5040374;28;20026;-65
2022/11/11 10:02:45;;;;;;;20.58;8.40;;;;;;;9.68;100.00;102881.53;5043575;28;20029;-66
2022/11/11 10:05:18;;;;;;;21.13;8.55;;;;;;;9.74;100.00;102884.47;5043693;28;20404;-67
2022/11/11 10:07:46;;;;;;;20.75;8.50;;;;;;;9.85;100.00;102881.34;5042869;28;20025;-66
2022/11/11 10:10:17;;;;;;;20.75;8.45;;;;;;;10.02;100.00;102882.91;5043779;28;20486;-66
2022/11/11 10:12:53;;;;;;;20.55;7.93;;;;;;;10.04;100.00;102882.97;5041943;28;20033;-67
2022/11/11 10:15:19;;;;;;;19.73;7.95;;;;;;;10.12;100.00;102882.41;5044679;28;20079;-67
2022/11/11 10:18:09;;;;;;;19.67;7.90;;;;;;;10.35;100.00;102890.34;5042466;28;20036;-66
2022/11/11 10:20:43;;;;;;;21.50;8.30;;;;;;;10.52;100.00;102882.16;5040974;28;20116;-67
2022/11/11 10:23:16;;;;;;;20.45;8.07;;;;;;;10.78;100.00;102884.00;5042828;28;20112;-68
2022/11/11 10:25:54;;;;;;;20.40;8.00;;;;;;;11.01;100.00;102885.66;5043626;28;20033;-67
2022/11/11 10:28:23;;;;;;;20.30;7.63;;;;;;;11.34;100.00;102888.56;5041332;28;20029;-67
2022/11/11 10:30:51;;;;;;;20.48;7.50;;;;;;;11.86;100.00;102889.38;5044682;28;20032;-66
2022/11/11 10:33:24;;;;;;;20.60;7.57;;;;;;;12.10;100.00;102883.97;5039781;28;20025;-67
2022/11/11 10:35:52;;;;;;;18.90;6.90;;;;;;;12.34;100.00;102893.50;5043004;28;20102;-67
2022/11/11 10:38:46;;;;;;;18.98;6.95;;;;;;;12.40;100.00;102892.78;5038141;28;20508;-64
2022/11/11 10:41:36;;;;;;;19.02;6.68;;;;;;;12.81;100.00;102890.41;5043105;28;20052;-66
2022/11/11 10:44:17;;;;;;;18.70;6.55;;;;;;;13.77;100.00;102894.69;5038004;28;20059;-65
2022/11/11 10:46:59;;;;;;;18.38;6.60;;;;;;;13.99;100.00;102892.50;5040837;28;20103;-68
2022/11/11 10:49:28;;;;;;;18.30;6.20;;;;;;;14.11;100.00;102897.19;5042937;28;20075;-66
2022/11/11 10:51:59;;;;;;;19.55;6.43;;;;;;;14.11;100.00;102897.19;5047567;28;20078;-66
2022/11/11 10:54:30;;;;;;;18.70;6.47;;;;;;;14.15;100.00;102893.75;5043511;28;20029;-65
2022/11/11 10:57:04;;;;;;;17.73;5.97;;;;;;;14.01;100.00;102892.53;5046265;28;20028;-66
2022/11/11 10:59:46;;;;;;;18.90;6.20;;;;;;;14.03;100.00;102890.81;5039104;28;20480;-68
2022/11/11 11:02:23;;;;;;;17.98;5.90;;;;;;;14.17;100.00;102888.44;5038578;28;20021;-67
2022/11/11 11:04:54;;;;;;;17.83;5.63;;;;;;;14.07;100.00;102887.38;5043415;28;20476;-68
2022/11/11 11:07:38;;;;;;;17.00;5.63;;;;;;;14.13;100.00;102887.50;5042636;28;20489;-68
2022/11/11 11:10:11;;;;;;;17.80;5.55;;;;;;;14.39;100.00;102881.84;5041266;28;20037;-68
2022/11/11 11:12:39;;;;;;;17.40;5.75;;;;;;;15.03;100.00;102886.66;5044556;28;20025;-68
2022/11/11 11:15:16;;;;;;;16.75;5.53;;;;;;;15.22;100.00;102880.78;5036672;28;20037;-67
2022/11/11 11:17:52;;;;;;;17.50;5.15;;;;;;;15.22;100.00;102886.13;5038023;28;20030;-68
2022/11/11 11:20:19;;;;;;;15.00;4.65;;;;;;;15.19;100.00;102879.81;5043071;28;20029;-67
2022/11/11 11:22:48;;;;;;;14.38;4.80;;;;;;;14.58;100.00;102884.00;5041471;28;20155;-68
2022/11/11 11:25:14;;;;;;;14.68;4.50;;;;;;;14.44;100.00;102870.41;5043490;28;20036;-68
2022/11/11 11:27:39;;;;;;;14.55;4.20;;;;;;;14.67;100.00;102871.81;5040416;28;20380;-67
2022/11/11 11:30:11;;;;;;;14.25;4.60;;;;;;;14.55;100.00;102870.66;5044209;28;20032;-69
2022/11/11 11:32:37;;;;;;;13.82;4.45;;;;;;;14.53;100.00;102872.38;5036758;28;20029;-68
2022/11/11 11:35:02;;;;;;;14.02;4.30;;;;;;;14.69;100.00;102873.59;5046852;28;20075;-68
2022/11/11 11:37:28;;;;;;;15.10;4.20;;;;;;;14.81;100.00;102872.97;5045541;28;20533;-68
2022/11/11 11:40:01;;;;;;;12.45;3.75;;;;;;;14.55;100.00;102875.97;5046627;28;20025;-68
2022/11/11 11:42:33;;;;;;;11.98;3.90;;;;;;;14.58;100.00;102870.72;5045693;28;20029;-68
2022/11/11 11:45:20;;;;;;;14.43;3.88;;;;;;;14.95;100.00;102878.53;5047416;28;20026;-69
2022/11/11 11:48:15;;;;;;;12.35;3.85;;;;;;;15.19;100.00;102872.75;5042801;28;20030;-68
2022/11/11 11:50:50;;;;;;;14.05;3.83;;;;;;;15.37;100.00;102873.94;5043930;28;20029;-66
2022/11/11 11:53:15;;;;;;;10.00;3.30;;;;;;;15.53;100.00;102865.31;5046019;28;20087;-68
2022/11/11 11:55:50;;;;;;;12.75;3.50;;;;;;;15.88;100.00;102864.09;5047130;28;20481;-68
2022/11/11 11:58:57;;;;;;;10.57;3.20;;;;;;;16.30;100.00;102855.75;5045450;28;20025;-67
2022/11/11 12:01:43;;;;;;;12.13;3.40;;;;;;;16.30;100.00;102855.75;5023908;28;20065;-68
2022/11/11 12:04:32;;;;;;;10.00;3.10;;;;;;;15.89;100.00;102863.19;5022295;28;20050;-67
2022/11/11 12:07:12;;;;;;;13.05;3.00;;;;;;;16.04;100.00;102858.97;5022490;28;20061;-68
2022/11/11 12:10:09;;;;;;;9.98;3.05;;;;;;;16.06;100.00;102850.09;5022416;28;20038;-68
2022/11/11 12:12:46;;;;;;;9.07;2.83;;;;;;;16.14;100.00;102851.09;5021989;28;20130;-68
2022/11/11 12:15:29;;;;;;;6.93;2.90;;;;;;;16.25;100.00;102860.16;5022797;28;20041;-66
2022/11/11 12:18:15;;;;;;;8.00;2.88;;;;;;;16.32;100.00;102845.97;5022708;28;20065;-69
2022/11/11 12:20:53;;;;;;;9.75;3.00;;;;;;;16.17;100.00;102844.03;5022806;28;20041;-68
2022/11/11 12:23:45;;;;;;;7.97;2.90;;;;;;;16.19;100.00;102846.72;5023558;28;20029;-66
2022/11/11 12:26:16;;;;;;;8.30;2.90;;;;;;;16.17;100.00;102840.47;5022402;28;20065;-67
2022/11/11 12:29:01;;;;;;;7.63;2.78;;;;;;;16.06;100.00;102844.75;5024777;28;20061;-68